createdAt,value
2022-10-01T00:01:40.478Z,12.21
2022-10-01T00:04:07.122Z,12.22
2022-10-01T00:06:33.731Z,12.27
2022-10-01T00:09:00.309Z,12.27
2022-10-01T00:11:27.003Z,12.27
2022-10-01T00:13:54.575Z,12.31
2022-10-01T00:16:24.580Z,12.38
2022-10-01T00:18:53.762Z,12.45
2022-10-01T00:21:25.900Z,12.48
2022-10-01T00:23:59.162Z,12.55
2022-10-01T00:26:28.909Z,12.48
2022-10-01T00:28:58.265Z,12.47
2022-10-01T00:31:25.777Z,12.42
2022-10-01T00:33:53.879Z,12.35
2022-10-01T00:36:21.245Z,12.28
2022-10-01T00:38:48.373Z,12.18
2022-10-01T00:41:16.968Z,12.13
2022-10-01T00:43:49.975Z,11.91
2022-10-01T00:46:22.386Z,11.71
2022-10-01T00:49:08.795Z,11.60
2022-10-01T00:51:40.906Z,11.48
2022-10-01T00:54:13.470Z,11.32
2022-10-01T00:56:41.381Z,11.24
2022-10-01T00:59:08.006Z,11.12
2022-10-01T01:01:37.484Z,11.02
2022-10-01T01:04:16.505Z,11.01
2022-10-01T01:06:46.516Z,10.95
2022-10-01T01:09:13.349Z,10.91
2022-10-01T01:11:46.138Z,10.87
2022-10-01T01:14:51.205Z,10.84
2022-10-01T01:17:31.092Z,10.81
2022-10-01T01:20:29.029Z,10.80
2022-10-01T01:23:17.166Z,10.73
2022-10-01T01:26:11.986Z,10.71
2022-10-01T01:28:44.567Z,10.73
2022-10-01T01:31:16.327Z,10.69
2022-10-01T01:33:47.467Z,10.69
2022-10-01T01:36:18.432Z,10.69
2022-10-01T01:38:56.087Z,10.66
2022-10-01T01:41:26.032Z,10.61
2022-10-01T01:43:56.625Z,10.60
2022-10-01T01:46:32.193Z,10.59
2022-10-01T01:49:02.364Z,10.56
2022-10-01T01:51:43.273Z,10.56
2022-10-01T01:54:10.007Z,10.55
2022-10-01T01:56:37.028Z,10.53
2022-10-01T01:59:03.855Z,10.56
2022-10-01T02:01:46.848Z,10.55
2022-10-01T02:04:29.061Z,10.55
2022-10-01T02:07:20.772Z,10.53
2022-10-01T02:09:53.587Z,10.56
2022-10-01T02:12:35.653Z,10.60
2022-10-01T02:15:11.828Z,10.59
2022-10-01T02:17:41.175Z,10.63
2022-10-01T02:20:15.787Z,10.61
2022-10-01T02:22:50.212Z,10.64
2022-10-01T02:25:20.234Z,10.59
2022-10-01T02:27:53.261Z,10.64
2022-10-01T02:30:19.934Z,10.66
2022-10-01T02:32:50.027Z,10.64
2022-10-01T02:35:18.672Z,10.64
2022-10-01T02:37:48.463Z,10.66
2022-10-01T02:40:19.342Z,10.64
2022-10-01T02:42:51.322Z,10.67
2022-10-01T02:45:24.648Z,10.69
2022-10-01T02:47:58.918Z,10.69
2022-10-01T02:50:31.680Z,10.63
2022-10-01T02:53:28.792Z,10.64
2022-10-01T02:55:57.213Z,10.63
2022-10-01T02:58:24.134Z,10.59
2022-10-01T03:00:50.818Z,10.63
2022-10-01T03:03:17.541Z,10.61
2022-10-01T03:05:44.711Z,10.60
2022-10-01T03:08:11.369Z,10.59
2022-10-01T03:10:37.964Z,10.55
2022-10-01T03:13:06.722Z,10.56
2022-10-01T03:15:44.741Z,10.57
2022-10-01T03:18:16.296Z,10.55
2022-10-01T03:20:43.791Z,10.53
2022-10-01T03:23:11.007Z,10.56
2022-10-01T03:25:43.851Z,10.53
2022-10-01T03:28:10.517Z,10.53
2022-10-01T03:30:37.198Z,10.53
2022-10-01T03:33:04.380Z,10.50
2022-10-01T03:35:32.308Z,10.49
2022-10-01T03:37:59.163Z,10.45
2022-10-01T03:40:26.155Z,10.45
2022-10-01T03:42:56.618Z,10.45
2022-10-01T03:45:53.254Z,10.43
2022-10-01T03:48:19.999Z,10.43
2022-10-01T03:50:57.742Z,10.42
2022-10-01T03:53:27.119Z,10.42
2022-10-01T03:55:55.228Z,10.45
2022-10-01T03:58:22.903Z,10.46
2022-10-01T04:01:08.719Z,10.43
2022-10-01T04:03:35.345Z,10.42
2022-10-01T04:06:21.772Z,10.45
2022-10-01T04:08:53.812Z,10.42
2022-10-01T04:11:20.574Z,10.43
2022-10-01T04:13:47.471Z,10.48
2022-10-01T04:16:15.820Z,10.46
2022-10-01T04:18:42.830Z,10.48
2022-10-01T04:21:09.475Z,10.49
2022-10-01T04:23:36.092Z,10.52
2022-10-01T04:26:03.568Z,10.56
2022-10-01T04:28:31.502Z,10.56
2022-10-01T04:31:17.248Z,10.57
2022-10-01T04:33:44.242Z,10.66
2022-10-01T04:36:12.034Z,10.69
2022-10-01T04:38:38.739Z,10.74
2022-10-01T04:41:05.657Z,10.73
2022-10-01T04:43:32.358Z,10.83
2022-10-01T04:45:58.914Z,10.87
2022-10-01T04:48:25.956Z,10.91
2022-10-01T04:50:52.653Z,11.01
2022-10-01T04:53:19.242Z,11.04
2022-10-01T04:55:46.854Z,11.12
2022-10-01T04:58:13.477Z,11.25
2022-10-01T05:00:40.534Z,11.34
2022-10-01T05:03:07.203Z,11.36
2022-10-01T05:05:38.091Z,11.39
2022-10-01T05:08:04.850Z,11.48
2022-10-01T05:10:31.549Z,11.55
2022-10-01T05:12:58.536Z,11.48
2022-10-01T05:15:25.668Z,11.50
2022-10-01T05:17:53.224Z,11.53
2022-10-01T05:20:21.933Z,11.55
2022-10-01T05:22:52.228Z,11.65
2022-10-01T05:25:20.017Z,11.59
2022-10-01T05:27:46.929Z,11.55
2022-10-01T05:30:18.713Z,11.50
2022-10-01T05:32:54.587Z,11.45
2022-10-01T05:35:21.327Z,11.38
2022-10-01T05:37:47.934Z,11.32
2022-10-01T05:40:15.168Z,11.32
2022-10-01T05:42:47.077Z,11.29
2022-10-01T05:45:13.999Z,11.31
2022-10-01T05:47:42.457Z,11.29
2022-10-01T05:50:09.695Z,11.24
2022-10-01T05:52:36.481Z,11.25
2022-10-01T05:55:03.214Z,11.29
2022-10-01T05:57:31.258Z,11.25
2022-10-01T05:59:58.090Z,11.27
2022-10-01T06:02:24.787Z,11.29
2022-10-01T06:04:51.532Z,11.35
2022-10-01T06:07:18.278Z,11.35
2022-10-01T06:09:45.308Z,11.34
2022-10-01T06:12:14.434Z,11.34
2022-10-01T06:14:43.029Z,11.34
2022-10-01T06:17:09.718Z,11.35
2022-10-01T06:19:36.250Z,11.34
2022-10-01T06:22:03.223Z,11.39
2022-10-01T06:24:31.399Z,11.41
2022-10-01T06:26:57.965Z,11.45
2022-10-01T06:33:39.867Z,11.58
2022-10-01T06:36:06.843Z,11.65
2022-10-01T06:38:33.467Z,11.71
2022-10-01T06:41:02.236Z,11.80
2022-10-01T06:43:31.054Z,11.82
2022-10-01T06:46:01.311Z,11.85
2022-10-01T06:48:31.189Z,11.87
2022-10-01T06:50:58.951Z,11.94
2022-10-01T06:53:28.122Z,11.94
2022-10-01T06:55:55.319Z,12.04
2022-10-01T06:58:26.316Z,12.07
2022-10-01T07:01:01.673Z,12.06
2022-10-01T07:03:28.674Z,12.11
2022-10-01T07:06:01.780Z,12.13
2022-10-01T07:08:28.348Z,12.18
2022-10-01T07:11:00.513Z,12.18
2022-10-01T07:13:27.126Z,12.21
2022-10-01T07:15:53.650Z,12.21
2022-10-01T07:18:20.195Z,12.27
2022-10-01T07:20:47.126Z,12.27
2022-10-01T07:23:15.607Z,12.27
2022-10-01T07:25:43.551Z,12.31
2022-10-01T07:28:16.764Z,12.29
2022-10-01T07:30:57.719Z,12.32
2022-10-01T07:33:24.402Z,12.32
2022-10-01T07:35:51.041Z,12.41
2022-10-01T07:38:18.045Z,12.42
2022-10-01T07:40:44.793Z,12.39
2022-10-01T07:43:14.715Z,12.47
2022-10-01T07:45:41.528Z,12.44
2022-10-01T07:48:08.834Z,12.44
2022-10-01T07:50:35.525Z,12.48
2022-10-01T07:53:02.950Z,12.65
2022-10-01T07:55:30.919Z,12.71
2022-10-01T07:57:59.684Z,12.66
2022-10-01T08:00:27.204Z,12.66
2022-10-01T08:02:56.259Z,12.69
2022-10-01T08:05:35.353Z,12.71
2022-10-01T08:08:04.863Z,12.75
2022-10-01T08:10:36.671Z,12.92
2022-10-01T08:13:14.676Z,12.86
2022-10-01T08:15:43.568Z,12.92
2022-10-01T08:18:11.396Z,12.97
2022-10-01T08:20:41.516Z,13.10
2022-10-01T08:23:10.626Z,13.17
2022-10-01T08:25:39.685Z,13.27
2022-10-01T08:28:07.358Z,13.31
2022-10-01T08:30:34.808Z,13.28
2022-10-01T08:33:02.307Z,13.38
2022-10-01T08:35:30.218Z,13.37
2022-10-01T08:38:06.820Z,13.36
2022-10-01T08:40:38.690Z,13.47
2022-10-01T08:43:20.230Z,13.47
2022-10-01T08:45:53.841Z,13.53
2022-10-01T08:49:01.511Z,13.51
2022-10-01T08:51:37.391Z,13.61
2022-10-01T08:54:18.140Z,13.62
2022-10-01T08:56:47.733Z,13.50
2022-10-01T08:59:37.875Z,13.46
2022-10-01T09:02:21.555Z,13.54
2022-10-01T09:05:13.563Z,13.61
2022-10-01T09:08:02.058Z,13.67
2022-10-01T09:10:35.900Z,13.71
2022-10-01T09:13:24.306Z,13.71
2022-10-01T09:16:02.190Z,13.74
2022-10-01T09:18:41.240Z,13.79
2022-10-01T09:21:47.450Z,13.79
2022-10-01T09:24:44.298Z,13.92
2022-10-01T09:27:19.610Z,13.96
2022-10-01T09:30:14.926Z,13.96
2022-10-01T09:32:54.183Z,13.86
2022-10-01T09:35:33.000Z,13.85
2022-10-01T09:38:52.498Z,13.89
2022-10-01T09:41:19.867Z,13.86
2022-10-01T09:43:47.880Z,13.88
2022-10-01T09:46:17.651Z,13.86
2022-10-01T09:48:47.505Z,13.82
2022-10-01T09:51:16.950Z,13.88
2022-10-01T09:53:52.227Z,13.99
2022-10-01T09:56:30.872Z,14.19
2022-10-01T09:59:02.169Z,14.41
2022-10-01T10:01:43.388Z,14.67
2022-10-01T10:04:11.248Z,14.68
2022-10-01T10:06:39.227Z,14.64
2022-10-01T10:09:16.001Z,14.66
2022-10-01T10:11:45.882Z,14.66
2022-10-01T10:14:20.196Z,14.70
2022-10-01T10:16:49.497Z,14.77
2022-10-01T10:19:28.099Z,14.80
2022-10-01T10:22:00.789Z,14.75
2022-10-01T10:24:33.747Z,14.83
2022-10-01T10:27:03.539Z,14.81
2022-10-01T10:29:32.583Z,14.83
2022-10-01T10:32:03.047Z,14.84
2022-10-01T10:34:39.593Z,14.92
2022-10-01T10:37:13.990Z,14.95
2022-10-01T10:39:44.581Z,15.14
2022-10-01T10:42:18.865Z,15.97
2022-10-01T10:44:49.598Z,15.74
2022-10-01T10:47:19.351Z,15.62
2022-10-01T10:49:48.325Z,15.70
2022-10-01T10:52:29.010Z,15.66
2022-10-01T10:54:58.003Z,15.63
2022-10-01T10:57:26.105Z,16.52
2022-10-01T11:00:03.015Z,17.89
2022-10-01T11:02:32.237Z,18.72
2022-10-01T11:05:21.401Z,19.08
2022-10-01T11:07:51.147Z,19.51
2022-10-01T11:10:24.291Z,19.13
2022-10-01T11:13:09.155Z,18.78
2022-10-01T11:16:03.969Z,18.23
2022-10-01T11:18:58.589Z,18.41
2022-10-01T11:21:30.578Z,17.98
2022-10-01T11:24:14.366Z,17.95
2022-10-01T11:26:57.975Z,18.64
2022-10-01T11:29:38.914Z,17.71
2022-10-01T11:32:34.626Z,17.42
2022-10-01T11:35:13.808Z,17.31
2022-10-01T11:38:11.517Z,18.82
2022-10-01T11:40:44.122Z,18.51
2022-10-01T11:43:38.392Z,18.81
2022-10-01T11:46:25.162Z,18.43
2022-10-01T11:49:02.568Z,18.02
2022-10-01T11:51:42.383Z,17.61
2022-10-01T11:54:14.497Z,17.47
2022-10-01T11:57:05.267Z,17.52
2022-10-01T11:59:50.214Z,17.27
2022-10-01T12:02:28.335Z,17.34
2022-10-01T12:05:07.601Z,17.32
2022-10-01T12:07:53.541Z,16.99
2022-10-01T12:10:37.613Z,16.79
2022-10-01T12:13:16.494Z,16.63
2022-10-01T12:16:08.813Z,16.53
2022-10-01T12:18:51.597Z,16.46
2022-10-01T12:21:27.460Z,16.36
2022-10-01T12:24:03.620Z,16.20
2022-10-01T12:26:47.997Z,16.15
2022-10-01T12:30:02.559Z,16.10
2022-10-01T12:33:05.829Z,16.20
2022-10-01T12:35:41.098Z,16.21
2022-10-01T12:38:27.644Z,16.25
2022-10-01T12:41:12.738Z,16.34
2022-10-01T12:44:06.585Z,16.28
2022-10-01T12:46:42.306Z,16.22
2022-10-01T12:49:22.605Z,16.38
2022-10-01T12:52:04.106Z,17.10
2022-10-01T12:54:54.927Z,18.08
2022-10-01T12:57:39.682Z,18.74
2022-10-01T13:00:18.763Z,19.06
2022-10-01T13:03:10.021Z,19.64
2022-10-01T13:05:54.976Z,20.19
2022-10-01T13:08:45.014Z,20.22
2022-10-01T13:11:38.561Z,20.24
2022-10-01T13:14:07.422Z,20.14
2022-10-01T13:17:09.739Z,20.42
2022-10-01T13:19:55.071Z,20.29
2022-10-01T13:22:47.909Z,19.59
2022-10-01T13:25:36.597Z,19.46
2022-10-01T13:28:17.822Z,19.35
2022-10-01T13:30:44.430Z,19.49
2022-10-01T13:33:24.029Z,20.01
2022-10-01T13:35:57.229Z,20.18
2022-10-01T13:38:43.159Z,20.59
2022-10-01T13:41:20.669Z,20.21
2022-10-01T13:43:58.206Z,20.29
2022-10-01T13:46:34.133Z,19.98
2022-10-01T13:49:17.795Z,19.98
2022-10-01T13:51:45.952Z,19.82
2022-10-01T13:54:24.369Z,20.49
2022-10-01T13:56:51.650Z,20.32
2022-10-01T13:59:32.984Z,20.53
2022-10-01T14:02:00.282Z,20.53
2022-10-01T14:04:34.317Z,20.29
2022-10-01T14:07:14.571Z,20.94
2022-10-01T14:09:49.810Z,20.53
2022-10-01T14:12:47.488Z,20.66
2022-10-01T14:15:36.390Z,20.75
2022-10-01T14:18:08.357Z,20.60
2022-10-01T14:20:52.309Z,20.80
2022-10-01T14:23:48.156Z,20.53
2022-10-01T14:26:24.683Z,20.49
2022-10-01T14:29:00.494Z,20.46
2022-10-01T14:31:38.181Z,20.91
2022-10-01T14:34:23.094Z,20.76
2022-10-01T14:36:54.386Z,21.13
2022-10-01T14:39:24.016Z,20.94
2022-10-01T14:41:53.047Z,21.14
2022-10-01T14:44:22.716Z,21.01
2022-10-01T14:46:51.092Z,20.98
2022-10-01T14:49:26.279Z,21.06
2022-10-01T14:52:07.058Z,21.23
2022-10-01T14:54:47.295Z,21.71
2022-10-01T14:57:27.870Z,21.55
2022-10-01T14:59:55.518Z,21.37
2022-10-01T15:02:25.219Z,20.90
2022-10-01T15:04:55.324Z,20.90
2022-10-01T15:07:22.385Z,20.59
2022-10-01T15:09:49.589Z,20.48
2022-10-01T15:12:19.308Z,20.70
2022-10-01T15:14:47.350Z,20.63
2022-10-01T15:17:23.448Z,20.81
2022-10-01T15:19:52.957Z,21.07
2022-10-01T15:22:28.132Z,21.08
2022-10-01T15:24:59.750Z,20.73
2022-10-01T15:27:26.765Z,20.40
2022-10-01T15:29:56.934Z,20.14
2022-10-01T15:32:25.342Z,19.92
2022-10-01T15:34:58.197Z,19.92
2022-10-01T15:37:35.899Z,19.75
2022-10-01T15:40:06.731Z,19.49
2022-10-01T15:42:34.821Z,19.49
2022-10-01T15:45:07.315Z,19.30
2022-10-01T15:47:37.650Z,19.30
2022-10-01T15:50:10.336Z,19.30
2022-10-01T15:52:52.478Z,19.68
2022-10-01T15:55:24.472Z,19.64
2022-10-01T15:57:57.427Z,19.67
2022-10-01T16:00:26.181Z,19.73
2022-10-01T16:02:54.535Z,19.33
2022-10-01T16:05:24.430Z,19.09
2022-10-01T16:07:58.515Z,19.09
2022-10-01T16:10:38.145Z,18.94
2022-10-01T16:13:29.289Z,18.94
2022-10-01T16:16:11.068Z,18.98
2022-10-01T16:18:37.896Z,18.91
2022-10-01T16:21:06.186Z,19.01
2022-10-01T16:23:42.038Z,18.81
2022-10-01T16:26:30.215Z,18.77
2022-10-01T16:28:58.803Z,18.77
2022-10-01T16:31:26.264Z,18.88
2022-10-01T16:33:53.140Z,18.68
2022-10-01T16:36:21.799Z,18.45
2022-10-01T16:38:48.380Z,18.20
2022-10-01T16:41:23.263Z,18.13
2022-10-01T16:43:51.516Z,18.00
2022-10-01T16:46:18.294Z,17.81
2022-10-01T16:48:49.451Z,17.71
2022-10-01T16:51:16.256Z,17.50
2022-10-01T16:53:45.983Z,17.24
2022-10-01T16:56:14.485Z,17.24
2022-10-01T16:58:43.255Z,17.14
2022-10-01T17:01:14.042Z,17.03
2022-10-01T17:03:40.701Z,16.82
2022-10-01T17:06:07.401Z,16.97
2022-10-01T17:08:34.285Z,16.83
2022-10-01T17:11:02.702Z,16.80
2022-10-01T17:13:32.831Z,16.72
2022-10-01T17:16:00.508Z,16.71
2022-10-01T17:18:27.170Z,16.62
2022-10-01T17:20:53.768Z,16.66
2022-10-01T17:23:22.572Z,16.65
2022-10-01T17:25:49.679Z,16.58
2022-10-01T17:28:18.943Z,16.58
2022-10-01T17:30:48.350Z,16.51
2022-10-01T17:33:17.087Z,16.63
2022-10-01T17:35:45.670Z,16.62
2022-10-01T17:38:12.758Z,16.56
2022-10-01T17:40:41.522Z,16.61
2022-10-01T17:43:11.145Z,16.41
2022-10-01T17:45:38.301Z,16.48
2022-10-01T17:48:05.058Z,16.39
2022-10-01T17:50:31.854Z,16.31
2022-10-01T17:52:59.590Z,16.32
